sensor_id;sensor_type;location;lat;lon;timestamp;pressure;altitude;pressure_sealevel;temperature;humidity
61528;BME280;47395;42.032;-8.634;2022-12-29T00:00:54;101292.06;;;28.31;37.74
61528;BME280;47395;42.032;-8.634;2022-12-29T00:02:54;101294.50;;;28.88;37.10
61528;BME280;47395;42.032;-8.634;2022-12-29T00:04:55;101297.03;;;28.51;37.62
61528;BME280;47395;42.032;-8.634;2022-12-29T00:06:56;101293.09;;;27.42;39.81
61528;BME280;47395;42.032;-8.634;2022-12-29T00:08:57;101297.78;;;28.05;39.10
61528;BME280;47395;42.032;-8.634;2022-12-29T00:10:58;101293.38;;;28.35;38.42
61528;BME280;47395;42.032;-8.634;2022-12-29T00:12:59;101306.38;;;28.08;38.94
61528;BME280;47395;42.032;-8.634;2022-12-29T00:15:18;101299.59;;;28.12;38.97
61528;BME280;47395;42.032;-8.634;2022-12-29T00:17:37;101293.91;;;28.31;38.73
61528;BME280;47395;42.032;-8.634;2022-12-29T00:19:38;101290.25;;;26.52;41.83
61528;BME280;47395;42.032;-8.634;2022-12-29T00:21:58;101282.47;;;27.15;41.06
61528;BME280;47395;42.032;-8.634;2022-12-29T00:24:19;101278.97;;;27.71;39.81
61528;BME280;47395;42.032;-8.634;2022-12-29T00:26:56;101278.28;;;27.78;39.84
61528;BME280;47395;42.032;-8.634;2022-12-29T00:29:16;101272.31;;;27.82;39.76
61528;BME280;47395;42.032;-8.634;2022-12-29T00:31:35;101276.19;;;27.88;39.73
61528;BME280;47395;42.032;-8.634;2022-12-29T00:33:55;101260.44;;;29.09;37.80
61528;BME280;47395;42.032;-8.634;2022-12-29T00:36:19;101269.78;;;29.06;37.10
61528;BME280;47395;42.032;-8.634;2022-12-29T00:38:22;101275.41;;;28.81;37.71
61528;BME280;47395;42.032;-8.634;2022-12-29T00:40:42;101273.25;;;27.49;41.00
61528;BME280;47395;42.032;-8.634;2022-12-29T00:43:01;101263.06;;;26.45;42.92
61528;BME280;47395;42.032;-8.634;2022-12-29T00:45:20;101268.16;;;26.98;42.17
61528;BME280;47395;42.032;-8.634;2022-12-29T00:47:21;101273.88;;;28.08;39.78
61528;BME280;47395;42.032;-8.634;2022-12-29T00:49:22;101271.44;;;27.90;40.04
61528;BME280;47395;42.032;-8.634;2022-12-29T00:51:32;101298.78;;;27.55;40.96
61528;BME280;47395;42.032;-8.634;2022-12-29T00:53:33;101291.75;;;27.86;40.49
61528;BME280;47395;42.032;-8.634;2022-12-29T00:55:38;101287.56;;;28.15;40.38
61528;BME280;47395;42.032;-8.634;2022-12-29T00:57:39;101292.81;;;27.76;40.94
61528;BME280;47395;42.032;-8.634;2022-12-29T00:59:41;101284.13;;;28.21;39.53
61528;BME280;47395;42.032;-8.634;2022-12-29T01:01:43;101287.13;;;29.35;37.58
61528;BME280;47395;42.032;-8.634;2022-12-29T01:03:44;101286.06;;;28.44;39.08
61528;BME280;47395;42.032;-8.634;2022-12-29T01:05:45;101279.78;;;29.96;36.02
61528;BME280;47395;42.032;-8.634;2022-12-29T01:07:47;101280.69;;;29.66;36.29
61528;BME280;47395;42.032;-8.634;2022-12-29T01:09:48;101272.59;;;29.13;37.45
61528;BME280;47395;42.032;-8.634;2022-12-29T01:12:08;101272.03;;;29.78;36.28
61528;BME280;47395;42.032;-8.634;2022-12-29T01:14:09;101270.56;;;29.60;36.18
61528;BME280;47395;42.032;-8.634;2022-12-29T01:16:11;101279.63;;;29.82;35.89
61528;BME280;47395;42.032;-8.634;2022-12-29T01:18:11;101281.81;;;28.41;37.98
61528;BME280;47395;42.032;-8.634;2022-12-29T01:20:13;101300.88;;;19.24;59.32
61528;BME280;47395;42.032;-8.634;2022-12-29T01:22:14;101296.00;;;16.20;74.16
61528;BME280;47395;42.032;-8.634;2022-12-29T01:24:16;101294.47;;;15.87;77.72
61528;BME280;47395;42.032;-8.634;2022-12-29T01:26:18;101299.72;;;15.74;79.71
61528;BME280;47395;42.032;-8.634;2022-12-29T01:28:19;101303.69;;;15.66;80.54
61528;BME280;47395;42.032;-8.634;2022-12-29T01:30:20;101313.00;;;15.74;80.47
61528;BME280;47395;42.032;-8.634;2022-12-29T01:32:20;101311.75;;;15.79;80.44
61528;BME280;47395;42.032;-8.634;2022-12-29T01:34:21;101294.97;;;15.79;80.56
61528;BME280;47395;42.032;-8.634;2022-12-29T01:36:24;101294.19;;;15.77;80.83
61528;BME280;47395;42.032;-8.634;2022-12-29T01:38:25;101296.19;;;15.73;81.02
61528;BME280;47395;42.032;-8.634;2022-12-29T01:40:26;101280.06;;;15.76;80.93
61528;BME280;47395;42.032;-8.634;2022-12-29T01:42:27;101279.56;;;15.84;80.77
61528;BME280;47395;42.032;-8.634;2022-12-29T01:46:50;101275.59;;;15.91;80.75
61528;BME280;47395;42.032;-8.634;2022-12-29T01:48:55;101279.50;;;15.86;80.87
61528;BME280;47395;42.032;-8.634;2022-12-29T01:50:58;101276.28;;;15.81;81.24
61528;BME280;47395;42.032;-8.634;2022-12-29T01:53:05;101269.59;;;15.88;81.30
61528;BME280;47395;42.032;-8.634;2022-12-29T01:55:10;101273.41;;;15.84;81.64
61528;BME280;47395;42.032;-8.634;2022-12-29T01:57:14;101272.75;;;15.95;81.22
61528;BME280;47395;42.032;-8.634;2022-12-29T01:59:21;101276.09;;;15.98;81.11
61528;BME280;47395;42.032;-8.634;2022-12-29T02:01:24;101277.53;;;16.04;81.00
61528;BME280;47395;42.032;-8.634;2022-12-29T02:03:26;101283.09;;;16.14;80.63
61528;BME280;47395;42.032;-8.634;2022-12-29T02:07:55;101287.72;;;16.25;80.29
61528;BME280;47395;42.032;-8.634;2022-12-29T02:09:56;101294.09;;;16.22;80.62
61528;BME280;47395;42.032;-8.634;2022-12-29T02:11:59;101295.59;;;16.26;80.48
61528;BME280;47395;42.032;-8.634;2022-12-29T02:14:00;101284.97;;;16.26;80.60
61528;BME280;47395;42.032;-8.634;2022-12-29T02:16:40;101292.09;;;16.53;79.54
61528;BME280;47395;42.032;-8.634;2022-12-29T02:19:27;101289.25;;;16.56;79.46
61528;BME280;47395;42.032;-8.634;2022-12-29T02:21:54;101292.66;;;16.58;79.27
61528;BME280;47395;42.032;-8.634;2022-12-29T02:24:45;101282.09;;;16.57;79.21
61528;BME280;47395;42.032;-8.634;2022-12-29T02:40:07;101287.03;;;16.36;80.32
61528;BME280;47395;42.032;-8.634;2022-12-29T02:42:19;101283.28;;;16.53;80.11
61528;BME280;47395;42.032;-8.634;2022-12-29T02:44:48;101288.81;;;16.50;79.67
61528;BME280;47395;42.032;-8.634;2022-12-29T02:47:14;101285.94;;;16.53;79.67
61528;BME280;47395;42.032;-8.634;2022-12-29T02:49:26;101284.91;;;16.41;79.55
61528;BME280;47395;42.032;-8.634;2022-12-29T02:52:01;101283.41;;;16.64;79.48
61528;BME280;47395;42.032;-8.634;2022-12-29T02:54:00;101290.16;;;16.70;78.69
61528;BME280;47395;42.032;-8.634;2022-12-29T02:56:22;101291.28;;;16.38;79.26
61528;BME280;47395;42.032;-8.634;2022-12-29T02:58:23;101287.38;;;16.44;79.73
61528;BME280;47395;42.032;-8.634;2022-12-29T03:00:24;101295.38;;;16.44;79.65
61528;BME280;47395;42.032;-8.634;2022-12-29T03:03:15;101288.84;;;16.35;79.72
61528;BME280;47395;42.032;-8.634;2022-12-29T03:06:39;101285.63;;;16.57;78.92
61528;BME280;47395;42.032;-8.634;2022-12-29T03:08:31;101292.50;;;16.47;78.88
61528;BME280;47395;42.032;-8.634;2022-12-29T03:11:02;101284.63;;;16.46;79.32
61528;BME280;47395;42.032;-8.634;2022-12-29T03:13:21;101277.34;;;16.35;79.75
61528;BME280;47395;42.032;-8.634;2022-12-29T03:20:57;101279.97;;;16.49;79.29
61528;BME280;47395;42.032;-8.634;2022-12-29T03:23:01;101280.00;;;16.35;79.31
61528;BME280;47395;42.032;-8.634;2022-12-29T03:25:35;101279.97;;;16.49;78.87
61528;BME280;47395;42.032;-8.634;2022-12-29T03:27:48;101280.75;;;16.64;78.80
61528;BME280;47395;42.032;-8.634;2022-12-29T03:29:55;101270.91;;;16.52;78.78
61528;BME280;47395;42.032;-8.634;2022-12-29T03:31:59;101277.28;;;16.64;78.13
61528;BME280;47395;42.032;-8.634;2022-12-29T03:34:03;101274.25;;;16.55;78.38
61528;BME280;47395;42.032;-8.634;2022-12-29T03:36:07;101272.06;;;16.48;78.61
61528;BME280;47395;42.032;-8.634;2022-12-29T03:38:19;101276.75;;;16.44;78.79
61528;BME280;47395;42.032;-8.634;2022-12-29T03:40:22;101283.53;;;16.35;79.33
61528;BME280;47395;42.032;-8.634;2022-12-29T03:42:26;101282.75;;;16.33;79.40
61528;BME280;47395;42.032;-8.634;2022-12-29T03:44:35;101279.59;;;16.41;79.32
61528;BME280;47395;42.032;-8.634;2022-12-29T03:46:37;101272.38;;;16.43;78.60
61528;BME280;47395;42.032;-8.634;2022-12-29T03:48:38;101266.75;;;16.48;78.57
61528;BME280;47395;42.032;-8.634;2022-12-29T03:50:39;101269.91;;;16.40;78.35
61528;BME280;47395;42.032;-8.634;2022-12-29T03:52:40;101275.44;;;16.37;78.19
61528;BME280;47395;42.032;-8.634;2022-12-29T03:54:41;101281.81;;;16.34;78.73
61528;BME280;47395;42.032;-8.634;2022-12-29T03:56:42;101275.56;;;16.21;79.24
61528;BME280;47395;42.032;-8.634;2022-12-29T03:58:44;101274.63;;;16.49;78.59
61528;BME280;47395;42.032;-8.634;2022-12-29T04:01:01;101276.13;;;16.26;79.25
61528;BME280;47395;42.032;-8.634;2022-12-29T04:03:04;101277.16;;;16.38;78.83
61528;BME280;47395;42.032;-8.634;2022-12-29T04:05:06;101277.31;;;16.22;79.52
61528;BME280;47395;42.032;-8.634;2022-12-29T04:07:07;101277.53;;;16.31;79.36
61528;BME280;47395;42.032;-8.634;2022-12-29T04:09:09;101284.72;;;16.44;78.48
61528;BME280;47395;42.032;-8.634;2022-12-29T04:11:15;101281.56;;;16.24;79.19
61528;BME280;47395;42.032;-8.634;2022-12-29T04:13:16;101288.31;;;16.15;79.22
61528;BME280;47395;42.032;-8.634;2022-12-29T04:15:17;101280.59;;;16.25;78.96
61528;BME280;47395;42.032;-8.634;2022-12-29T04:17:18;101283.63;;;16.34;78.10
61528;BME280;47395;42.032;-8.634;2022-12-29T04:19:22;101285.56;;;16.17;78.66
61528;BME280;47395;42.032;-8.634;2022-12-29T04:21:24;101278.09;;;16.37;77.91
61528;BME280;47395;42.032;-8.634;2022-12-29T04:23:25;101276.78;;;16.29;78.14
61528;BME280;47395;42.032;-8.634;2022-12-29T04:25:27;101273.47;;;16.26;78.35
61528;BME280;47395;42.032;-8.634;2022-12-29T04:27:28;101279.22;;;16.47;77.61
61528;BME280;47395;42.032;-8.634;2022-12-29T04:29:47;101284.50;;;16.20;78.16
61528;BME280;47395;42.032;-8.634;2022-12-29T04:32:16;101281.09;;;16.45;77.46
61528;BME280;47395;42.032;-8.634;2022-12-29T04:34:22;101290.00;;;16.31;78.06
61528;BME280;47395;42.032;-8.634;2022-12-29T04:36:23;101289.75;;;16.49;77.41
61528;BME280;47395;42.032;-8.634;2022-12-29T04:38:25;101289.03;;;16.32;77.82
61528;BME280;47395;42.032;-8.634;2022-12-29T04:40:28;101290.13;;;16.42;77.73
61528;BME280;47395;42.032;-8.634;2022-12-29T04:42:29;101295.09;;;16.49;77.21
61528;BME280;47395;42.032;-8.634;2022-12-29T04:44:30;101301.84;;;16.40;77.62
61528;BME280;47395;42.032;-8.634;2022-12-29T04:47:00;101307.31;;;16.51;76.77
61528;BME280;47395;42.032;-8.634;2022-12-29T04:49:15;101308.66;;;16.44;77.15
61528;BME280;47395;42.032;-8.634;2022-12-29T04:51:29;101300.88;;;16.41;77.34
61528;BME280;47395;42.032;-8.634;2022-12-29T04:53:30;101301.09;;;16.38;77.27
61528;BME280;47395;42.032;-8.634;2022-12-29T04:55:33;101305.72;;;16.34;77.14
61528;BME280;47395;42.032;-8.634;2022-12-29T04:57:34;101294.97;;;16.50;76.92
61528;BME280;47395;42.032;-8.634;2022-12-29T04:59:36;101303.81;;;16.51;76.59
61528;BME280;47395;42.032;-8.634;2022-12-29T05:06:16;101300.78;;;16.70;75.86
61528;BME280;47395;42.032;-8.634;2022-12-29T05:08:17;101310.97;;;16.63;75.93
61528;BME280;47395;42.032;-8.634;2022-12-29T05:10:18;101307.38;;;16.64;75.73
61528;BME280;47395;42.032;-8.634;2022-12-29T05:12:21;101309.66;;;16.70;75.62
61528;BME280;47395;42.032;-8.634;2022-12-29T05:14:34;101310.22;;;16.61;75.16
61528;BME280;47395;42.032;-8.634;2022-12-29T05:16:37;101315.59;;;16.74;75.23
61528;BME280;47395;42.032;-8.634;2022-12-29T05:18:38;101325.03;;;16.65;75.25
61528;BME280;47395;42.032;-8.634;2022-12-29T05:20:39;101317.31;;;16.75;75.01
61528;BME280;47395;42.032;-8.634;2022-12-29T05:22:40;101316.81;;;16.55;75.00
61528;BME280;47395;42.032;-8.634;2022-12-29T05:24:41;101301.31;;;16.62;75.01
61528;BME280;47395;42.032;-8.634;2022-12-29T05:26:42;101308.97;;;16.67;74.21
61528;BME280;47395;42.032;-8.634;2022-12-29T05:29:04;101313.50;;;16.79;73.94
61528;BME280;47395;42.032;-8.634;2022-12-29T05:31:06;101322.28;;;16.67;74.28
61528;BME280;47395;42.032;-8.634;2022-12-29T05:33:07;101314.44;;;16.51;74.47
61528;BME280;47395;42.032;-8.634;2022-12-29T05:35:12;101312.78;;;16.63;74.22
61528;BME280;47395;42.032;-8.634;2022-12-29T05:37:13;101311.50;;;16.41;74.44
61528;BME280;47395;42.032;-8.634;2022-12-29T05:39:16;101323.47;;;16.48;74.36
61528;BME280;47395;42.032;-8.634;2022-12-29T05:41:21;101316.22;;;16.65;74.21
61528;BME280;47395;42.032;-8.634;2022-12-29T05:43:54;101318.78;;;16.66;75.07
61528;BME280;47395;42.032;-8.634;2022-12-29T05:46:13;101324.69;;;16.84;74.89
61528;BME280;47395;42.032;-8.634;2022-12-29T05:48:33;101322.97;;;16.56;75.92
61528;BME280;47395;42.032;-8.634;2022-12-29T05:50:52;101319.59;;;16.39;76.97
61528;BME280;47395;42.032;-8.634;2022-12-29T05:52:59;101319.84;;;16.49;76.82
61528;BME280;47395;42.032;-8.634;2022-12-29T05:55:00;101321.88;;;16.46;76.98
61528;BME280;47395;42.032;-8.634;2022-12-29T05:57:04;101327.28;;;16.44;77.53
61528;BME280;47395;42.032;-8.634;2022-12-29T05:59:05;101332.53;;;16.73;76.33
61528;BME280;47395;42.032;-8.634;2022-12-29T06:01:06;101327.41;;;16.70;76.23
61528;BME280;47395;42.032;-8.634;2022-12-29T06:03:07;101325.50;;;16.44;77.28
61528;BME280;47395;42.032;-8.634;2022-12-29T06:05:08;101322.72;;;16.46;77.48
61528;BME280;47395;42.032;-8.634;2022-12-29T06:07:11;101319.59;;;16.67;76.45
61528;BME280;47395;42.032;-8.634;2022-12-29T06:09:16;101318.88;;;16.65;76.70
61528;BME280;47395;42.032;-8.634;2022-12-29T06:11:17;101318.09;;;16.63;76.40
61528;BME280;47395;42.032;-8.634;2022-12-29T06:13:24;101319.88;;;16.77;75.81
61528;BME280;47395;42.032;-8.634;2022-12-29T06:15:25;101331.91;;;16.55;76.63
61528;BME280;47395;42.032;-8.634;2022-12-29T06:17:27;101328.09;;;16.59;76.56
61528;BME280;47395;42.032;-8.634;2022-12-29T06:19:29;101320.09;;;16.31;77.72
61528;BME280;47395;42.032;-8.634;2022-12-29T06:21:30;101324.25;;;16.36;77.28
61528;BME280;47395;42.032;-8.634;2022-12-29T06:23:34;101321.91;;;16.31;77.38
61528;BME280;47395;42.032;-8.634;2022-12-29T06:25:35;101320.41;;;16.54;76.84
61528;BME280;47395;42.032;-8.634;2022-12-29T06:27:36;101312.59;;;16.24;77.73
61528;BME280;47395;42.032;-8.634;2022-12-29T06:29:39;101316.22;;;16.65;76.52
61528;BME280;47395;42.032;-8.634;2022-12-29T06:31:45;101321.56;;;16.78;75.78
61528;BME280;47395;42.032;-8.634;2022-12-29T06:33:46;101324.88;;;16.81;75.62
61528;BME280;47395;42.032;-8.634;2022-12-29T06:35:47;101326.09;;;16.63;75.82
61528;BME280;47395;42.032;-8.634;2022-12-29T06:37:48;101325.47;;;16.72;76.09
61528;BME280;47395;42.032;-8.634;2022-12-29T06:39:49;101338.75;;;16.59;76.31
61528;BME280;47395;42.032;-8.634;2022-12-29T06:41:54;101343.44;;;16.26;77.90
61528;BME280;47395;42.032;-8.634;2022-12-29T06:44:15;101348.66;;;16.42;77.12
61528;BME280;47395;42.032;-8.634;2022-12-29T06:46:23;101350.03;;;16.63;76.43
61528;BME280;47395;42.032;-8.634;2022-12-29T06:48:24;101342.72;;;16.66;76.33
61528;BME280;47395;42.032;-8.634;2022-12-29T06:50:25;101335.91;;;16.48;77.09
61528;BME280;47395;42.032;-8.634;2022-12-29T06:52:26;101337.72;;;16.47;77.30
61528;BME280;47395;42.032;-8.634;2022-12-29T06:54:28;101343.28;;;16.29;77.61
61528;BME280;47395;42.032;-8.634;2022-12-29T06:56:29;101340.38;;;16.47;77.30
61528;BME280;47395;42.032;-8.634;2022-12-29T06:58:30;101332.09;;;16.52;76.96
61528;BME280;47395;42.032;-8.634;2022-12-29T07:00:31;101341.34;;;16.46;77.12
61528;BME280;47395;42.032;-8.634;2022-12-29T07:02:32;101336.81;;;16.61;76.45
61528;BME280;47395;42.032;-8.634;2022-12-29T07:04:33;101348.69;;;16.70;76.04
61528;BME280;47395;42.032;-8.634;2022-12-29T07:06:33;101345.63;;;16.49;76.46
61528;BME280;47395;42.032;-8.634;2022-12-29T07:08:35;101343.44;;;16.26;77.02
61528;BME280;47395;42.032;-8.634;2022-12-29T07:10:35;101346.66;;;16.31;76.85
61528;BME280;47395;42.032;-8.634;2022-12-29T07:12:36;101352.22;;;15.99;77.67
61528;BME280;47395;42.032;-8.634;2022-12-29T07:14:37;101340.72;;;16.13;77.51
61528;BME280;47395;42.032;-8.634;2022-12-29T07:16:39;101347.47;;;16.04;77.77
61528;BME280;47395;42.032;-8.634;2022-12-29T07:18:40;101343.53;;;16.25;77.04
61528;BME280;47395;42.032;-8.634;2022-12-29T07:20:41;101337.53;;;16.36;76.40
61528;BME280;47395;42.032;-8.634;2022-12-29T07:22:42;101344.16;;;16.57;75.90
61528;BME280;47395;42.032;-8.634;2022-12-29T07:24:43;101347.06;;;16.67;75.60
61528;BME280;47395;42.032;-8.634;2022-12-29T07:26:44;101351.94;;;16.61;75.34
61528;BME280;47395;42.032;-8.634;2022-12-29T07:28:45;101358.31;;;16.58;75.49
61528;BME280;47395;42.032;-8.634;2022-12-29T07:30:46;101358.78;;;16.65;75.33
61528;BME280;47395;42.032;-8.634;2022-12-29T07:32:46;101362.00;;;16.70;75.06
61528;BME280;47395;42.032;-8.634;2022-12-29T07:34:47;101350.25;;;16.60;75.63
61528;BME280;47395;42.032;-8.634;2022-12-29T07:36:48;101360.19;;;16.70;75.05
61528;BME280;47395;42.032;-8.634;2022-12-29T07:38:49;101353.81;;;16.73;74.98
61528;BME280;47395;42.032;-8.634;2022-12-29T07:40:50;101358.63;;;16.81;74.72
61528;BME280;47395;42.032;-8.634;2022-12-29T07:42:51;101358.63;;;16.81;74.94
61528;BME280;47395;42.032;-8.634;2022-12-29T07:45:00;101361.19;;;16.82;74.66
61528;BME280;47395;42.032;-8.634;2022-12-29T07:47:21;101362.72;;;16.72;74.60
61528;BME280;47395;42.032;-8.634;2022-12-29T07:49:22;101366.25;;;16.30;76.31
61528;BME280;47395;42.032;-8.634;2022-12-29T07:51:23;101368.97;;;16.58;75.55
61528;BME280;47395;42.032;-8.634;2022-12-29T07:53:24;101371.56;;;16.73;74.97
61528;BME280;47395;42.032;-8.634;2022-12-29T07:55:25;101377.84;;;16.72;75.10
61528;BME280;47395;42.032;-8.634;2022-12-29T07:57:26;101384.38;;;16.53;75.58
61528;BME280;47395;42.032;-8.634;2022-12-29T07:59:27;101381.16;;;16.75;75.09
61528;BME280;47395;42.032;-8.634;2022-12-29T08:01:27;101372.56;;;16.84;74.40
61528;BME280;47395;42.032;-8.634;2022-12-29T08:03:28;101377.50;;;16.91;74.27
61528;BME280;47395;42.032;-8.634;2022-12-29T08:05:31;101377.09;;;16.97;74.07
61528;BME280;47395;42.032;-8.634;2022-12-29T08:07:32;101374.13;;;16.74;74.14
61528;BME280;47395;42.032;-8.634;2022-12-29T08:09:33;101363.63;;;16.86;74.05
61528;BME280;47395;42.032;-8.634;2022-12-29T08:11:34;101365.28;;;16.74;74.47
61528;BME280;47395;42.032;-8.634;2022-12-29T08:13:35;101359.59;;;16.80;74.15
61528;BME280;47395;42.032;-8.634;2022-12-29T08:15:37;101364.22;;;16.91;74.01
61528;BME280;47395;42.032;-8.634;2022-12-29T08:17:38;101358.53;;;16.82;74.17
61528;BME280;47395;42.032;-8.634;2022-12-29T08:19:39;101359.94;;;16.88;73.79
61528;BME280;47395;42.032;-8.634;2022-12-29T08:21:40;101360.78;;;16.89;73.86
61528;BME280;47395;42.032;-8.634;2022-12-29T08:23:41;101372.47;;;16.86;73.81
61528;BME280;47395;42.032;-8.634;2022-12-29T08:25:42;101368.63;;;16.77;74.08
61528;BME280;47395;42.032;-8.634;2022-12-29T08:27:43;101372.44;;;16.73;74.11
61528;BME280;47395;42.032;-8.634;2022-12-29T08:29:44;101375.50;;;16.94;73.96
61528;BME280;47395;42.032;-8.634;2022-12-29T08:31:45;101385.50;;;16.91;73.64
61528;BME280;47395;42.032;-8.634;2022-12-29T08:33:46;101378.06;;;16.96;73.54
61528;BME280;47395;42.032;-8.634;2022-12-29T08:35:47;101371.78;;;16.97;73.71
61528;BME280;47395;42.032;-8.634;2022-12-29T08:37:48;101354.63;;;16.88;74.02
61528;BME280;47395;42.032;-8.634;2022-12-29T08:39:49;101362.09;;;16.96;73.84
61528;BME280;47395;42.032;-8.634;2022-12-29T08:41:50;101358.97;;;16.89;73.65
61528;BME280;47395;42.032;-8.634;2022-12-29T08:43:51;101363.88;;;16.95;74.00
61528;BME280;47395;42.032;-8.634;2022-12-29T08:45:52;101353.53;;;17.05;73.39
61528;BME280;47395;42.032;-8.634;2022-12-29T08:47:52;101356.19;;;17.05;73.58
61528;BME280;47395;42.032;-8.634;2022-12-29T08:49:53;101360.16;;;17.13;73.17
61528;BME280;47395;42.032;-8.634;2022-12-29T08:51:54;101342.56;;;17.10;73.24
61528;BME280;47395;42.032;-8.634;2022-12-29T08:53:55;101350.66;;;17.08;73.24
61528;BME280;47395;42.032;-8.634;2022-12-29T08:56:00;101350.78;;;17.20;72.98
61528;BME280;47395;42.032;-8.634;2022-12-29T08:58:01;101353.66;;;17.17;73.16
61528;BME280;47395;42.032;-8.634;2022-12-29T09:00:03;101350.34;;;17.13;73.16
61528;BME280;47395;42.032;-8.634;2022-12-29T09:02:05;101357.31;;;17.01;73.23
61528;BME280;47395;42.032;-8.634;2022-12-29T09:04:07;101357.69;;;17.09;73.17
61528;BME280;47395;42.032;-8.634;2022-12-29T09:06:08;101352.03;;;17.14;73.17
61528;BME280;47395;42.032;-8.634;2022-12-29T09:08:08;101358.00;;;17.05;73.01
61528;BME280;47395;42.032;-8.634;2022-12-29T09:10:09;101375.47;;;17.09;73.35
61528;BME280;47395;42.032;-8.634;2022-12-29T09:12:10;101363.91;;;17.23;72.89
61528;BME280;47395;42.032;-8.634;2022-12-29T09:14:12;101367.53;;;17.22;72.76
61528;BME280;47395;42.032;-8.634;2022-12-29T09:16:13;101364.16;;;17.46;71.89
61528;BME280;47395;42.032;-8.634;2022-12-29T09:18:14;101369.47;;;17.46;72.26
61528;BME280;47395;42.032;-8.634;2022-12-29T09:20:17;101364.47;;;17.41;72.04
61528;BME280;47395;42.032;-8.634;2022-12-29T09:22:19;101365.22;;;17.56;71.98
61528;BME280;47395;42.032;-8.634;2022-12-29T09:24:20;101371.84;;;17.51;71.80
61528;BME280;47395;42.032;-8.634;2022-12-29T09:26:21;101360.13;;;17.53;71.68
61528;BME280;47395;42.032;-8.634;2022-12-29T09:28:23;101380.28;;;17.57;71.65
61528;BME280;47395;42.032;-8.634;2022-12-29T09:30:24;101377.28;;;17.49;72.03
61528;BME280;47395;42.032;-8.634;2022-12-29T09:32:25;101374.81;;;17.59;71.45
61528;BME280;47395;42.032;-8.634;2022-12-29T09:34:26;101366.25;;;17.28;72.60
61528;BME280;47395;42.032;-8.634;2022-12-29T09:36:27;101383.09;;;17.28;72.71
61528;BME280;47395;42.032;-8.634;2022-12-29T09:38:28;101379.31;;;17.58;71.88
61528;BME280;47395;42.032;-8.634;2022-12-29T09:40:33;101381.31;;;17.42;72.42
61528;BME280;47395;42.032;-8.634;2022-12-29T09:43:17;101383.09;;;17.41;72.26
61528;BME280;47395;42.032;-8.634;2022-12-29T09:45:47;101381.78;;;17.61;71.61
61528;BME280;47395;42.032;-8.634;2022-12-29T09:47:52;101377.50;;;17.72;71.40
61528;BME280;47395;42.032;-8.634;2022-12-29T09:49:55;101376.31;;;17.63;71.44
61528;BME280;47395;42.032;-8.634;2022-12-29T09:52:03;101378.25;;;17.87;71.21
61528;BME280;47395;42.032;-8.634;2022-12-29T09:54:24;101375.06;;;18.08;70.75
61528;BME280;47395;42.032;-8.634;2022-12-29T09:56:30;101383.81;;;18.10;70.50
61528;BME280;47395;42.032;-8.634;2022-12-29T09:58:44;101389.56;;;18.17;69.88
61528;BME280;47395;42.032;-8.634;2022-12-29T10:00:56;101384.75;;;18.22;69.88
61528;BME280;47395;42.032;-8.634;2022-12-29T10:03:06;101386.50;;;18.10;70.16
61528;BME280;47395;42.032;-8.634;2022-12-29T10:05:35;101391.06;;;18.08;70.12
61528;BME280;47395;42.032;-8.634;2022-12-29T10:07:54;101394.47;;;17.97;70.37
61528;BME280;47395;42.032;-8.634;2022-12-29T10:10:26;101401.06;;;18.04;70.43
61528;BME280;47395;42.032;-8.634;2022-12-29T10:13:07;101400.44;;;18.13;69.95
61528;BME280;47395;42.032;-8.634;2022-12-29T10:15:35;101404.72;;;18.29;69.90
61528;BME280;47395;42.032;-8.634;2022-12-29T10:17:53;101409.72;;;18.08;70.40
61528;BME280;47395;42.032;-8.634;2022-12-29T10:20:28;101402.75;;;18.05;70.64
61528;BME280;47395;42.032;-8.634;2022-12-29T10:25:26;101402.34;;;18.37;69.80
61528;BME280;47395;42.032;-8.634;2022-12-29T10:27:31;101409.38;;;18.38;69.50
61528;BME280;47395;42.032;-8.634;2022-12-29T10:29:39;101399.22;;;18.44;69.13
61528;BME280;47395;42.032;-8.634;2022-12-29T10:31:48;101396.03;;;18.38;69.39
61528;BME280;47395;42.032;-8.634;2022-12-29T10:33:57;101404.06;;;18.38;69.05
61528;BME280;47395;42.032;-8.634;2022-12-29T10:36:07;101410.47;;;17.97;70.54
61528;BME280;47395;42.032;-8.634;2022-12-29T10:40:36;101398.84;;;18.24;69.45
61528;BME280;47395;42.032;-8.634;2022-12-29T10:42:44;101399.69;;;18.24;69.38
61528;BME280;47395;42.032;-8.634;2022-12-29T10:44:48;101399.78;;;18.23;69.82
61528;BME280;47395;42.032;-8.634;2022-12-29T10:47:03;101392.34;;;18.15;69.67
61528;BME280;47395;42.032;-8.634;2022-12-29T10:49:08;101390.19;;;18.33;69.37
61528;BME280;47395;42.032;-8.634;2022-12-29T10:51:24;101386.88;;;18.43;68.92
61528;BME280;47395;42.032;-8.634;2022-12-29T10:55:54;101380.81;;;18.27;69.29
61528;BME280;47395;42.032;-8.634;2022-12-29T10:58:00;101378.03;;;18.29;69.11
61528;BME280;47395;42.032;-8.634;2022-12-29T11:00:21;101384.75;;;18.35;69.27
61528;BME280;47395;42.032;-8.634;2022-12-29T11:04:56;101368.69;;;18.48;68.78
61528;BME280;47395;42.032;-8.634;2022-12-29T11:07:03;101364.97;;;18.50;68.93
61528;BME280;47395;42.032;-8.634;2022-12-29T11:09:16;101362.03;;;18.66;68.52
61528;BME280;47395;42.032;-8.634;2022-12-29T11:11:25;101362.59;;;18.83;67.76
61528;BME280;47395;42.032;-8.634;2022-12-29T11:13:32;101359.03;;;18.96;67.54
61528;BME280;47395;42.032;-8.634;2022-12-29T11:15:44;101360.66;;;18.85;67.41
61528;BME280;47395;42.032;-8.634;2022-12-29T11:17:48;101356.25;;;18.73;67.66
61528;BME280;47395;42.032;-8.634;2022-12-29T11:19:50;101359.19;;;18.81;67.73
61528;BME280;47395;42.032;-8.634;2022-12-29T11:21:51;101353.19;;;18.90;67.18
61528;BME280;47395;42.032;-8.634;2022-12-29T11:24:25;101349.72;;;19.01;66.73
61528;BME280;47395;42.032;-8.634;2022-12-29T11:26:27;101354.19;;;18.76;67.61
61528;BME280;47395;42.032;-8.634;2022-12-29T11:28:29;101348.97;;;18.75;68.33
61528;BME280;47395;42.032;-8.634;2022-12-29T11:30:32;101327.81;;;18.96;67.31
61528;BME280;47395;42.032;-8.634;2022-12-29T11:32:33;101332.44;;;18.94;67.66